Time;durP1;ratioP1;P1;durP2;ratioP2;P2;SDS_P1;SDS_P2;PMS_P1;PMS_P2;Temp;Humidity;BMP_temperature;BMP_pressure;BME280_temperature;BME280_humidity;BME280_pressure;Samples;Min_cycle;Max_cycle;Signal;HPM_P1;HPM_P2
2022/11/18 00:00:35;;;;;;;;;3.67;1.67;;;;;12.60;66.94;99252.53;2079424;28;46409;-60
2022/11/18 00:01:35;;;;;;;;;2.00;2.00;;;;;12.59;66.87;99252.63;2086293;28;45665;-62
2022/11/18 00:02:36;;;;;;;;;1.00;1.00;;;;;12.58;67.00;99257.09;2084145;28;46716;-61
2022/11/18 00:03:37;;;;;;;;;1.67;1.67;;;;;12.59;66.91;99260.63;2082298;28;46554;-59
2022/11/18 00:04:38;;;;;;;;;1.50;1.50;;;;;12.59;66.80;99253.50;2079739;28;47200;-61
2022/11/18 00:05:38;;;;;;;;;1.67;1.67;;;;;12.58;66.84;99262.41;2089153;28;45717;-62
2022/11/18 00:06:38;;;;;;;;;1.67;1.67;;;;;12.57;66.99;99263.31;2080761;28;45553;-60
2022/11/18 00:07:39;;;;;;;;;2.00;2.00;;;;;12.57;66.92;99259.81;2086570;28;46577;-62
2022/11/18 00:08:40;;;;;;;;;1.00;1.00;;;;;12.55;66.70;99261.69;2078778;28;46475;-61
2022/11/18 00:09:40;;;;;;;;;3.00;3.00;;;;;12.54;67.52;99260.84;2086601;28;46315;-59
2022/11/18 00:10:40;;;;;;;;;1.00;1.00;;;;;12.54;67.06;99263.50;2083960;28;46200;-59
2022/11/18 00:14:22;;;;;;;;;1.25;1.25;;;;;12.51;67.14;99276.13;2081699;28;46358;-61
2022/11/18 00:15:22;;;;;;;;;1.00;1.00;;;;;12.48;67.09;99282.47;2082579;28;46343;-60
2022/11/18 00:16:23;;;;;;;;;2.00;1.00;;;;;12.47;67.22;99272.75;2081249;28;46216;-62
2022/11/18 00:17:23;;;;;;;;;0.67;0.67;;;;;12.45;67.11;99269.31;2083211;28;46272;-61
2022/11/18 00:18:25;;;;;;;;;3.67;3.67;;;;;12.45;67.34;99277.31;2080569;28;46898;-61
2022/11/18 00:19:32;;;;;;;;;8.00;8.00;;;;;12.46;67.39;99284.34;2094207;28;47161;-61
2022/11/18 00:20:33;;;;;;;;;7.00;7.00;;;;;12.46;67.42;99284.34;2087677;28;47330;-62
2022/11/18 00:21:33;;;;;;;;;8.25;8.25;;;;;12.47;67.37;99283.41;2086505;28;46659;-61
2022/11/18 00:22:34;;;;;;;;;2.67;1.67;;;;;12.49;67.39;99289.50;2084366;28;46280;-61
2022/11/18 00:23:35;;;;;;;;;1.00;1.00;;;;;12.50;67.40;99279.72;2087425;28;46485;-61
2022/11/18 00:24:35;;;;;;;;;1.00;1.00;;;;;12.49;67.37;99280.66;2081790;28;46692;-60
2022/11/18 00:25:36;;;;;;;;;2.00;2.00;;;;;12.47;67.12;99288.72;2092903;28;46557;-61
2022/11/18 00:26:36;;;;;;;;;1.67;1.67;;;;;12.45;67.31;99290.63;2088698;28;46933;-61
2022/11/18 00:27:36;;;;;;;;;1.33;1.00;;;;;12.43;67.24;99284.47;2088536;28;47080;-59
2022/11/18 00:28:38;;;;;;;;;0.67;0.00;;;;;12.43;67.28;99288.94;2085123;28;46827;-61
2022/11/18 00:29:38;;;;;;;;;0.00;0.00;;;;;12.42;67.35;99305.84;2088828;28;46680;-63
2022/11/18 00:30:38;;;;;;;;;2.00;2.00;;;;;12.40;67.63;99303.28;2082302;28;46885;-64
2022/11/18 00:31:39;;;;;;;;;0.00;0.00;;;;;12.40;67.36;99305.06;2082915;28;46840;-62
2022/11/18 00:32:39;;;;;;;;;1.33;1.00;;;;;12.40;67.28;99303.28;2081181;28;46822;-61
2022/11/18 00:33:40;;;;;;;;;1.33;1.33;;;;;12.39;67.55;99309.53;2083966;28;46684;-60
2022/11/18 00:34:41;;;;;;;;;2.33;1.33;;;;;12.40;67.55;99310.41;2084395;28;46238;-60
2022/11/18 00:35:41;;;;;;;;;1.50;0.75;;;;;12.40;67.71;99308.59;2086450;28;46677;-61
2022/11/18 00:36:42;;;;;;;;;2.00;2.00;;;;;12.41;67.44;99318.28;2082287;28;46775;-61
2022/11/18 00:37:43;;;;;;;;;2.75;1.50;;;;;12.41;67.62;99314.78;2096776;28;45327;-60
2022/11/18 00:38:43;;;;;;;;;0.67;0.67;;;;;12.41;67.63;99317.44;2101207;27;46343;-62
2022/11/18 00:39:44;;;;;;;;;1.00;1.00;;;;;12.39;67.43;99322.84;2085397;28;46461;-61
2022/11/18 00:40:44;;;;;;;;;1.00;1.00;;;;;12.39;67.48;99328.16;2082520;28;46323;-61
2022/11/18 00:43:04;;;;;;;;;1.00;1.00;;;;;12.36;67.45;99320.34;2081429;28;46617;-62
2022/11/18 00:44:04;;;;;;;;;2.00;1.00;;;;;12.34;67.45;99320.44;2086430;28;46135;-62
2022/11/18 00:45:05;;;;;;;;;0.00;0.00;;;;;12.33;67.70;99326.69;2085612;28;46210;-61
2022/11/18 00:46:08;;;;;;;;;1.67;1.33;;;;;12.35;67.48;99334.59;2089726;28;46683;-59
2022/11/18 00:47:08;;;;;;;;;1.00;1.00;;;;;12.35;67.55;99339.91;2086520;28;46372;-62
2022/11/18 00:48:08;;;;;;;;;0.00;0.00;;;;;12.36;67.80;99328.31;2083464;28;46798;-61
2022/11/18 00:49:09;;;;;;;;;1.00;1.00;;;;;12.35;67.31;99334.59;2085913;28;46303;-62
2022/11/18 00:50:09;;;;;;;;;0.00;0.00;;;;;12.35;67.40;99329.28;2085084;28;47131;-61
2022/11/18 00:51:14;;;;;;;;;1.00;1.00;;;;;12.33;67.67;99342.66;2083043;28;45898;-62
2022/11/18 00:52:14;;;;;;;;;1.00;0.75;;;;;12.32;67.56;99335.59;2085579;28;46638;-62
2022/11/18 00:53:16;;;;;;;;;2.00;2.00;;;;;12.32;67.49;99332.06;2084699;28;46029;-63
2022/11/18 00:54:16;;;;;;;;;2.00;2.00;;;;;12.31;67.67;99344.50;2083991;28;46290;-61
2022/11/18 00:55:17;;;;;;;;;2.67;1.33;;;;;12.29;67.85;99338.41;2091324;28;46488;-61
2022/11/18 00:56:17;;;;;;;;;1.00;1.00;;;;;12.30;67.63;99344.59;2099836;27;45679;-61
2022/11/18 00:57:17;;;;;;;;;1.00;1.00;;;;;12.29;67.62;99343.72;2103432;27;46308;-61
2022/11/18 00:58:18;;;;;;;;;1.00;1.00;;;;;12.28;67.48;99336.69;2086306;28;46647;-62
2022/11/18 00:59:19;;;;;;;;;1.00;1.00;;;;;12.28;67.57;99346.47;2086891;28;46293;-63
2022/11/18 01:00:19;;;;;;;;;2.67;1.00;;;;;12.27;67.99;99342.09;2083910;28;46405;-61
2022/11/18 01:01:20;;;;;;;;;1.00;1.00;;;;;12.28;67.80;99344.66;2084530;28;46452;-63
2022/11/18 01:02:20;;;;;;;;;1.00;1.00;;;;;12.28;67.86;99347.31;2082750;28;46817;-62
2022/11/18 01:03:20;;;;;;;;;2.00;2.00;;;;;12.29;67.83;99341.06;2088052;28;46099;-62
2022/11/18 01:04:21;;;;;;;;;2.00;2.00;;;;;12.31;67.87;99351.63;2079935;28;46207;-62
2022/11/18 01:05:21;;;;;;;;;1.00;1.00;;;;;12.31;67.69;99343.63;2087046;28;46258;-60
2022/11/18 01:06:22;;;;;;;;;2.00;1.00;;;;;12.32;67.58;99350.69;2083749;28;46676;-61
2022/11/18 01:07:22;;;;;;;;;0.00;0.00;;;;;12.33;67.65;99355.94;2086979;28;47009;-59
2022/11/18 01:08:24;;;;;;;;;1.00;1.00;;;;;12.33;67.68;99353.28;2057988;28;46511;-63
2022/11/18 01:09:25;;;;;;;;;0.50;0.50;;;;;12.31;67.75;99355.13;2086292;28;46335;-60
2022/11/18 01:10:25;;;;;;;;;0.67;0.67;;;;;12.30;67.60;99358.75;2085420;28;46520;-62
2022/11/18 01:14:03;;;;;;;;;2.00;2.00;;;;;12.27;67.78;99355.38;2079484;28;46612;-61
2022/11/18 01:15:03;;;;;;;;;1.00;1.00;;;;;12.25;67.61;99357.25;2082110;28;46496;-62
2022/11/18 01:16:04;;;;;;;;;1.00;1.00;;;;;12.22;67.77;99352.97;2083156;28;46222;-60
2022/11/18 01:17:04;;;;;;;;;0.33;0.33;;;;;12.21;67.91;99355.72;2083215;28;44935;-61
2022/11/18 01:18:05;;;;;;;;;0.00;0.00;;;;;12.21;67.88;99355.72;2085638;28;46763;-60
2022/11/18 01:19:05;;;;;;;;;1.00;1.00;;;;;12.21;67.77;99359.22;2086117;28;46608;-61
2022/11/18 01:20:06;;;;;;;;;0.00;0.00;;;;;12.20;67.96;99356.66;2084511;28;46809;-61
2022/11/18 01:21:06;;;;;;;;;1.00;1.00;;;;;12.19;67.92;99361.06;2085573;28;46251;-62
2022/11/18 01:22:07;;;;;;;;;1.00;1.00;;;;;12.19;67.62;99355.75;2083623;28;46269;-61
2022/11/18 01:23:07;;;;;;;;;1.00;1.00;;;;;12.21;67.83;99353.03;2086441;28;46520;-62
2022/11/18 01:24:07;;;;;;;;;0.67;0.67;;;;;12.20;67.65;99353.97;2082154;28;46760;-62
2022/11/18 01:25:08;;;;;;;;;1.00;1.00;;;;;12.20;67.81;99362.81;2085877;28;46208;-62
2022/11/18 01:26:11;;;;;;;;;0.00;0.00;;;;;12.20;67.84;99357.50;2084308;28;46593;-62
2022/11/18 01:27:11;;;;;;;;;2.00;1.00;;;;;12.19;67.87;99362.88;2081848;28;46354;-62
2022/11/18 01:28:12;;;;;;;;;0.67;0.67;;;;;12.19;67.83;99357.56;2083208;28;46121;-60
2022/11/18 01:29:13;;;;;;;;;1.00;1.00;;;;;12.18;68.06;99366.47;2084227;28;47119;-60
2022/11/18 01:30:15;;;;;;;;;1.00;0.00;;;;;12.18;67.81;99363.81;2086557;28;46249;-62
2022/11/18 01:31:18;;;;;;;;;0.50;0.50;;;;;12.17;67.84;99360.28;2085251;28;45492;-60
2022/11/18 01:32:18;;;;;;;;;1.00;1.00;;;;;12.15;67.91;99359.50;2085353;28;46539;-61
2022/11/18 01:33:18;;;;;;;;;0.00;0.00;;;;;12.15;67.79;99353.34;2087122;28;46617;-61
2022/11/18 01:34:19;;;;;;;;;0.33;0.00;;;;;12.14;67.79;99363.13;2082869;28;46325;-60
2022/11/18 01:35:19;;;;;;;;;0.00;0.00;;;;;12.14;67.82;99364.91;2088152;28;46804;-62
2022/11/18 01:36:22;;;;;;;;;0.67;0.67;;;;;12.11;67.93;99367.72;2082511;28;46250;-62
2022/11/18 01:37:23;;;;;;;;;0.75;0.75;;;;;12.10;68.00;99372.19;2084950;28;45920;-61
2022/11/18 01:38:23;;;;;;;;;1.00;1.00;;;;;12.08;67.96;99366.09;2080138;28;46585;-62
2022/11/18 01:39:24;;;;;;;;;0.67;0.67;;;;;12.05;67.81;99367.06;2080344;28;45763;-62
2022/11/18 01:40:26;;;;;;;;;0.75;0.75;;;;;12.05;68.01;99376.84;2088900;28;46458;-63
2022/11/18 01:41:26;;;;;;;;;0.75;0.75;;;;;12.06;67.93;99375.91;2090514;28;46235;-61
2022/11/18 01:42:27;;;;;;;;;0.33;0.33;;;;;12.07;68.04;99375.00;2081348;28;46674;-60
2022/11/18 01:43:56;;;;;;;;;2.33;1.00;;;;;12.08;68.07;99376.72;2080052;28;46205;-60
2022/11/18 01:45:13;;;;;;;;;1.25;1.25;;;;;12.08;68.16;99371.41;2081475;28;47218;-62
2022/11/18 01:46:13;;;;;;;;;1.25;1.00;;;;;12.10;68.27;99382.81;2085528;28;46413;-62
2022/11/18 01:47:13;;;;;;;;;2.33;0.00;;;;;12.12;68.13;99369.44;2078219;28;46301;-61
2022/11/18 01:48:23;;;;;;;;;2.00;0.00;;;;;12.13;68.02;99387.13;2084900;28;46441;-62
2022/11/18 01:49:23;;;;;;;;;1.00;1.00;;;;;12.12;67.90;99386.25;2087061;28;45970;-62
2022/11/18 01:50:25;;;;;;;;;0.00;0.00;;;;;12.12;68.11;99386.25;2079836;28;46805;-61
2022/11/18 01:51:31;;;;;;;;;1.25;1.25;;;;;12.13;68.19;99384.47;2087474;28;46484;-61
2022/11/18 01:52:33;;;;;;;;;0.25;0.25;;;;;12.12;68.13;99385.41;2085541;28;46593;-62
2022/11/18 01:53:40;;;;;;;;;2.00;1.00;;;;;12.11;68.19;99392.53;2087586;28;47153;-62
2022/11/18 01:54:51;;;;;;;;;0.00;0.00;;;;;12.12;68.17;99388.06;2082283;28;46556;-62
2022/11/18 01:55:54;;;;;;;;;0.25;0.25;;;;;12.13;67.97;99393.31;2084447;28;46991;-61
2022/11/18 01:56:59;;;;;;;;;1.00;1.00;;;;;12.14;68.15;99395.03;2085319;28;46771;-61
2022/11/18 01:58:09;;;;;;;;;1.50;1.00;;;;;12.15;68.00;99395.88;2084964;28;47104;-63
2022/11/18 01:59:17;;;;;;;;;1.00;0.00;;;;;12.13;68.02;99385.31;2086453;28;46873;-61
2022/11/18 02:00:17;;;;;;;;;2.25;1.25;;;;;12.12;68.03;99391.59;2082380;28;46536;-61
2022/11/18 02:01:18;;;;;;;;;0.00;0.00;;;;;12.11;68.22;99387.22;2085312;28;45703;-61
2022/11/18 02:02:19;;;;;;;;;0.00;0.00;;;;;12.13;67.92;99395.09;2085461;28;46400;-62
2022/11/18 02:03:21;;;;;;;;;0.00;0.00;;;;;12.13;68.08;99395.09;2083936;28;46353;-62
2022/11/18 02:04:24;;;;;;;;;0.00;0.00;;;;;12.12;68.08;99396.91;2079961;28;46475;-62
2022/11/18 02:05:25;;;;;;;;;0.75;0.00;;;;;12.11;68.12;99386.34;2085074;28;46725;-61
2022/11/18 02:06:25;;;;;;;;;0.00;0.00;;;;;12.12;68.07;99393.38;2081592;28;46469;-60
2022/11/18 02:07:26;;;;;;;;;0.00;0.00;;;;;12.11;67.97;99404.97;2086338;28;46564;-61
2022/11/18 02:08:28;;;;;;;;;0.67;0.00;;;;;12.12;68.09;99402.22;2085274;28;46359;-61
2022/11/18 02:09:29;;;;;;;;;0.00;0.00;;;;;12.13;68.25;99403.09;2083694;28;46583;-62
2022/11/18 02:10:29;;;;;;;;;2.67;0.00;;;;;12.13;68.05;99398.63;2080186;28;46573;-61
2022/11/18 02:12:51;;;;;;;;;0.00;0.00;;;;;12.13;68.16;99400.44;2085504;28;46619;-60
2022/11/18 02:13:51;;;;;;;;;0.00;0.00;;;;;12.13;68.07;99395.97;2081103;28;46477;-60
2022/11/18 02:14:52;;;;;;;;;1.67;0.00;;;;;12.13;68.21;99401.28;2086351;28;46330;-62
2022/11/18 02:16:14;;;;;;;;;1.00;1.00;;;;;12.15;68.09;99406.53;2083177;28;45940;-62
2022/11/18 02:17:43;;;;;;;;;0.00;0.00;;;;;12.14;68.10;99403.00;2086276;28;46467;-62
2022/11/18 02:18:56;;;;;;;;;0.00;0.00;;;;;12.13;68.15;99413.72;2085182;28;45890;-61
2022/11/18 02:20:41;;;;;;;;;0.50;0.50;;;;;12.11;68.04;99407.63;2085325;28;46533;-60
2022/11/18 02:21:56;;;;;;;;;1.00;1.00;;;;;12.09;68.01;99418.34;2084197;28;45927;-61
2022/11/18 02:23:39;;;;;;;;;0.00;0.00;;;;;12.07;68.17;99415.75;2078366;28;46392;-62
2022/11/18 02:25:04;;;;;;;;;1.75;1.75;;;;;12.09;68.40;99415.69;2077409;28;46701;-61
2022/11/18 02:26:26;;;;;;;;;0.00;0.00;;;;;12.10;68.39;99411.22;2073347;28;46897;-61
2022/11/18 02:27:40;;;;;;;;;1.00;1.00;;;;;12.10;68.18;99416.53;2078045;28;46430;-61
2022/11/18 02:29:15;;;;;;;;;0.25;0.25;;;;;12.10;68.37;99422.72;2077345;28;46953;-61
2022/11/18 02:30:17;;;;;;;;;0.25;0.25;;;;;12.10;68.27;99425.38;2078174;28;46681;-61
2022/11/18 02:31:33;;;;;;;;;0.00;0.00;;;;;12.11;68.08;99415.59;2078726;28;46291;-59
2022/11/18 02:32:42;;;;;;;;;0.00;0.00;;;;;12.12;68.26;99422.63;2069523;28;45991;-60
2022/11/18 02:33:53;;;;;;;;;0.00;0.00;;;;;12.12;68.16;99426.16;2069618;28;46708;-62
2022/11/18 02:35:04;;;;;;;;;0.25;0.25;;;;;12.11;68.22;99428.91;2070258;28;46295;-61
2022/11/18 02:36:16;;;;;;;;;0.00;0.00;;;;;12.11;68.04;99435.06;2070616;28;46569;-60
2022/11/18 02:37:28;;;;;;;;;0.00;0.00;;;;;12.10;68.30;99433.34;2078359;28;46137;-62
2022/11/18 02:38:36;;;;;;;;;0.00;0.00;;;;;12.11;68.00;99431.56;2077319;28;46826;-60
2022/11/18 02:39:43;;;;;;;;;0.00;0.00;;;;;12.12;68.52;99433.28;2077665;28;46811;-62
2022/11/18 02:40:48;;;;;;;;;0.00;0.00;;;;;12.11;68.18;99437.72;2078067;28;45836;-61
2022/11/18 02:41:54;;;;;;;;;0.75;0.75;;;;;12.11;68.27;99434.22;2074702;28;46791;-63
2022/11/18 02:43:05;;;;;;;;;3.25;0.00;;;;;12.09;68.18;99428.97;2077794;28;46386;-62
2022/11/18 02:44:12;;;;;;;;;0.00;0.00;;;;;12.08;68.33;99429.91;2068774;28;46469;-61
2022/11/18 02:45:16;;;;;;;;;0.00;0.00;;;;;12.10;68.47;99429.84;2067967;28;45958;-61
2022/11/18 02:46:22;;;;;;;;;0.00;0.00;;;;;12.10;68.28;99430.69;2077631;28;46773;-60
2022/11/18 02:47:26;;;;;;;;;1.00;1.00;;;;;12.11;68.29;99432.41;2078347;28;46557;-60
2022/11/18 02:48:31;;;;;;;;;0.00;0.00;;;;;12.10;68.32;99428.03;2077249;28;46874;-62
2022/11/18 02:49:37;;;;;;;;;0.00;0.00;;;;;12.10;68.19;99428.03;2078599;28;46353;-59
2022/11/18 02:50:41;;;;;;;;;1.00;1.00;;;;;12.10;68.28;99433.34;2075869;28;46377;-60
2022/11/18 02:51:43;;;;;;;;;0.00;0.00;;;;;12.08;68.32;99432.56;2077903;28;45669;-63
2022/11/18 02:52:46;;;;;;;;;0.00;0.00;;;;;12.07;68.21;99437.03;2078379;28;46760;-60
2022/11/18 02:53:48;;;;;;;;;0.00;0.00;;;;;12.05;68.45;99438.88;2077434;28;46424;-61
2022/11/18 02:54:50;;;;;;;;;1.50;0.75;;;;;12.05;68.24;99440.66;2078290;28;46692;-60
2022/11/18 02:55:52;;;;;;;;;0.75;0.75;;;;;12.05;68.44;99438.00;2080907;28;46412;-60
2022/11/18 02:56:54;;;;;;;;;1.00;1.00;;;;;12.04;68.42;99441.59;2078062;28;46665;-60
2022/11/18 02:57:56;;;;;;;;;3.00;0.00;;;;;12.03;68.23;99442.53;2076855;28;45910;-61
2022/11/18 02:58:56;;;;;;;;;1.50;0.00;;;;;12.02;68.40;99441.69;2077476;28;46408;-61
2022/11/18 02:59:56;;;;;;;;;0.00;0.00;;;;;12.01;68.25;99447.06;2083142;28;46599;-61
2022/11/18 03:00:59;;;;;;;;;0.00;0.00;;;;;12.01;68.39;99455.06;2083588;28;46648;-60
2022/11/18 03:02:00;;;;;;;;;0.50;0.50;;;;;12.00;68.29;99443.56;2083767;28;46767;-61
2022/11/18 03:03:23;;;;;;;;;0.00;0.00;;;;;12.01;68.38;99445.28;2082518;28;46657;-61
2022/11/18 03:04:25;;;;;;;;;0.00;0.00;;;;;12.02;68.22;99449.66;2079719;28;46588;-62
2022/11/18 03:05:50;;;;;;;;;0.50;0.50;;;;;12.02;68.21;99457.63;2084307;28;45691;-60
2022/11/18 03:07:02;;;;;;;;;0.50;0.50;;;;;12.02;68.24;99457.63;2084933;28;46410;-61
2022/11/18 03:08:15;;;;;;;;;0.00;0.00;;;;;12.02;68.40;99464.75;2055843;28;46423;-61
2022/11/18 03:09:27;;;;;;;;;0.00;0.00;;;;;12.01;68.25;99461.22;2083793;28;46678;-61
2022/11/18 03:10:35;;;;;;;;;1.00;1.00;;;;;12.02;68.23;99464.75;2081812;28;46749;-61
2022/11/18 03:11:50;;;;;;;;;0.00;0.00;;;;;12.03;68.44;99466.47;2087094;28;46394;-59
2022/11/18 03:13:14;;;;;;;;;0.50;0.00;;;;;12.05;68.32;99467.25;2084781;28;46568;-61
2022/11/18 03:14:36;;;;;;;;;0.25;0.25;;;;;12.05;68.16;99464.59;2081202;28;46643;-60
2022/11/18 03:15:45;;;;;;;;;0.25;0.25;;;;;12.04;68.14;99471.72;2084404;28;46796;-60
2022/11/18 03:17:00;;;;;;;;;0.00;0.00;;;;;12.05;68.01;99472.56;2080463;28;46141;-60
2022/11/18 03:18:25;;;;;;;;;0.00;0.00;;;;;12.03;67.93;99471.78;2081014;28;46965;-61
2022/11/18 03:19:35;;;;;;;;;1.00;0.75;;;;;12.00;67.97;99464.84;2087118;28;47118;-60
2022/11/18 03:20:48;;;;;;;;;1.00;1.00;;;;;12.00;68.12;99477.25;2082720;28;46860;-61
2022/11/18 03:22:08;;;;;;;;;0.00;0.00;;;;;11.98;67.91;99473.81;2079026;28;47061;-62
2022/11/18 03:23:11;;;;;;;;;0.00;0.00;;;;;11.98;68.13;99476.47;2086145;28;46438;-60
2022/11/18 03:24:19;;;;;;;;;1.00;0.00;;;;;12.00;68.21;99474.59;2082373;28;45560;-60
2022/11/18 03:25:41;;;;;;;;;1.75;0.00;;;;;12.01;68.24;99471.88;2083700;28;46512;-61
2022/11/18 03:26:47;;;;;;;;;0.50;0.50;;;;;12.04;68.04;99470.84;2082097;28;45950;-61
2022/11/18 03:28:00;;;;;;;;;0.00;0.00;;;;;12.04;67.96;99469.06;2083572;28;46336;-61
2022/11/18 03:29:09;;;;;;;;;2.00;0.50;;;;;12.05;68.35;99468.13;2085524;28;46886;-60
2022/11/18 03:30:14;;;;;;;;;0.00;0.00;;;;;12.04;68.09;99460.22;2085380;28;46627;-61
2022/11/18 03:31:39;;;;;;;;;0.50;0.50;;;;;12.04;68.04;99478.84;2082537;28;46319;-61
2022/11/18 03:32:44;;;;;;;;;2.00;1.00;;;;;12.05;68.07;99469.91;2079679;28;46784;-61
2022/11/18 03:33:51;;;;;;;;;0.75;0.25;;;;;12.05;68.25;99477.91;2084186;28;46518;-61
2022/11/18 03:35:00;;;;;;;;;0.00;0.00;;;;;12.05;68.00;99481.41;2080521;28;46415;-60
2022/11/18 03:36:06;;;;;;;;;0.00;0.00;;;;;12.05;67.87;99472.56;2084218;28;45744;-62
2022/11/18 03:37:11;;;;;;;;;0.00;0.00;;;;;12.04;68.08;99477.03;2081671;28;46180;-61
2022/11/18 03:38:19;;;;;;;;;0.25;0.00;;;;;12.03;67.95;99480.63;2083985;28;46315;-61
2022/11/18 03:39:22;;;;;;;;;0.00;0.00;;;;;12.01;67.93;99484.31;2082183;28;46637;-62
2022/11/18 03:40:28;;;;;;;;;0.00;0.00;;;;;11.99;68.06;99486.19;2082116;28;46299;-61
2022/11/18 03:41:33;;;;;;;;;0.00;0.00;;;;;11.99;68.18;99486.19;2081427;28;46318;-60
2022/11/18 03:42:45;;;;;;;;;0.00;0.00;;;;;11.98;68.20;99473.81;2088935;28;46575;-61
2022/11/18 03:44:03;;;;;;;;;0.00;0.00;;;;;12.00;68.18;99483.44;2086741;28;46763;-61
2022/11/18 03:45:17;;;;;;;;;0.00;0.00;;;;;12.01;68.10;99494.94;2079482;28;46632;-60
2022/11/18 03:46:34;;;;;;;;;1.00;0.00;;;;;12.03;68.18;99487.75;2086421;28;46909;-61
2022/11/18 03:47:40;;;;;;;;;1.00;0.00;;;;;12.03;68.04;99493.06;2087174;28;46501;-60
2022/11/18 03:48:46;;;;;;;;;0.00;0.00;;;;;12.03;68.19;99485.94;2082614;28;46624;-60
2022/11/18 03:49:56;;;;;;;;;0.00;0.00;;;;;12.04;68.05;99500.09;2079085;28;46488;-59
2022/11/18 03:51:07;;;;;;;;;0.00;0.00;;;;;12.04;68.20;99495.66;2083632;28;47353;-61
2022/11/18 03:52:17;;;;;;;;;1.00;1.00;;;;;12.05;68.03;99501.81;2084257;28;46025;-61
2022/11/18 03:53:20;;;;;;;;;0.00;0.00;;;;;12.04;68.19;99508.09;2081331;28;46604;-61
2022/11/18 03:54:28;;;;;;;;;0.00;0.00;;;;;12.03;68.20;99501.91;2083462;28;46395;-60
2022/11/18 03:55:37;;;;;;;;;0.00;0.00;;;;;12.02;68.11;99508.16;2083801;28;46617;-62
2022/11/18 03:56:45;;;;;;;;;0.00;0.00;;;;;12.01;68.17;99509.09;2089568;28;46472;-61
2022/11/18 03:57:55;;;;;;;;;1.00;1.00;;;;;12.01;68.29;99517.06;2093089;28;46503;-60
2022/11/18 03:59:10;;;;;;;;;0.75;0.75;;;;;12.00;68.25;99515.34;2085018;28;46654;-61
2022/11/18 04:00:14;;;;;;;;;1.00;1.00;;;;;11.99;68.24;99515.44;2084833;28;46321;-61
2022/11/18 04:01:23;;;;;;;;;0.00;0.00;;;;;11.98;68.32;99521.69;2085020;28;46861;-62
2022/11/18 04:02:26;;;;;;;;;1.00;1.00;;;;;11.97;68.25;99515.50;2081090;28;46672;-61
2022/11/18 04:03:27;;;;;;;;;0.00;0.00;;;;;11.98;68.48;99516.38;2085302;28;46635;-62
2022/11/18 04:04:28;;;;;;;;;0.00;0.00;;;;;11.98;68.70;99521.69;2083547;28;46633;-62
2022/11/18 04:05:34;;;;;;;;;0.67;0.00;;;;;11.97;68.34;99518.16;2087368;28;46366;-61
2022/11/18 04:06:45;;;;;;;;;0.00;0.00;;;;;11.98;68.42;99525.19;2080828;28;46584;-60
2022/11/18 04:07:57;;;;;;;;;0.75;0.75;;;;;11.97;68.30;99526.13;2082155;28;46953;-61
2022/11/18 04:09:06;;;;;;;;;0.00;0.00;;;;;11.96;68.36;99521.75;2083625;28;46132;-61
2022/11/18 04:10:19;;;;;;;;;0.00;0.00;;;;;11.95;68.29;99525.34;2084089;28;46676;-60
2022/11/18 04:12:52;;;;;;;;;0.75;0.00;;;;;11.93;68.24;99527.19;2084510;28;46583;-62
2022/11/18 04:13:53;;;;;;;;;0.75;0.75;;;;;11.93;68.36;99534.31;2086747;28;46428;-61
2022/11/18 04:14:54;;;;;;;;;0.33;0.00;;;;;11.92;68.44;99529.91;2083009;28;46420;-59
2022/11/18 04:15:54;;;;;;;;;2.25;1.00;;;;;11.93;68.33;99527.19;2083578;28;46427;-60
2022/11/18 04:16:55;;;;;;;;;0.33;0.33;;;;;11.92;68.51;99536.09;2087683;28;46525;-60
2022/11/18 04:17:55;;;;;;;;;2.00;0.00;;;;;11.92;68.50;99533.44;2085858;28;46391;-61
2022/11/18 04:18:56;;;;;;;;;0.00;0.00;;;;;11.91;68.59;99529.06;2085789;28;46368;-60
2022/11/18 04:19:56;;;;;;;;;1.00;1.00;;;;;11.94;68.51;99550.22;2086885;28;46650;-60
2022/11/18 04:20:56;;;;;;;;;0.00;0.00;;;;;11.94;68.20;99541.34;2085295;28;45713;-59
2022/11/18 04:21:57;;;;;;;;;0.67;0.33;;;;;11.93;68.38;99543.13;2085752;28;46764;-60
2022/11/18 04:22:57;;;;;;;;;0.00;0.00;;;;;11.92;68.34;99541.41;2084601;28;46531;-60
2022/11/18 04:23:57;;;;;;;;;0.33;0.33;;;;;11.91;68.53;99550.31;2085531;28;46907;-62
2022/11/18 04:24:57;;;;;;;;;1.00;1.00;;;;;11.92;68.38;99545.88;2086204;28;46723;-62
2022/11/18 04:25:59;;;;;;;;;0.00;0.00;;;;;11.92;68.61;99544.06;2085629;28;46448;-62
2022/11/18 04:27:01;;;;;;;;;1.00;1.00;;;;;11.92;68.61;99546.72;2086915;28;47052;-61
2022/11/18 04:28:01;;;;;;;;;0.00;0.00;;;;;11.90;68.43;99553.91;2086764;28;46328;-62
2022/11/18 04:29:02;;;;;;;;;0.00;0.00;;;;;11.89;68.59;99552.19;2087384;28;45974;-61
2022/11/18 04:30:04;;;;;;;;;1.00;1.00;;;;;11.87;68.56;99550.56;2086161;28;46105;-61
2022/11/18 04:31:04;;;;;;;;;0.75;0.00;;;;;11.86;68.54;99548.81;2086246;28;46838;-62
2022/11/18 04:32:05;;;;;;;;;0.00;0.00;;;;;11.85;68.73;99552.41;2085519;28;46251;-61
2022/11/18 04:33:05;;;;;;;;;0.67;0.67;;;;;11.85;68.43;99552.41;2086352;28;45879;-61
2022/11/18 04:34:05;;;;;;;;;0.00;0.00;;;;;11.83;68.40;99554.28;2084672;28;45810;-60
2022/11/18 04:35:06;;;;;;;;;2.67;1.00;;;;;11.80;68.53;99560.59;2087455;28;46700;-61
2022/11/18 04:36:06;;;;;;;;;0.33;0.33;;;;;11.78;68.72;99565.06;2083792;28;46194;-60
2022/11/18 04:37:07;;;;;;;;;1.00;1.00;;;;;11.77;68.79;99558.91;2086240;28;46556;-60
2022/11/18 04:38:07;;;;;;;;;1.00;1.00;;;;;11.77;68.68;99571.31;2083125;28;46797;-60
2022/11/18 04:39:07;;;;;;;;;0.00;0.00;;;;;11.76;68.83;99567.81;2085023;28;46557;-60
2022/11/18 04:40:09;;;;;;;;;1.00;1.00;;;;;11.75;68.65;99570.53;2080698;28;46751;-60
2022/11/18 04:41:09;;;;;;;;;0.25;0.00;;;;;11.75;69.06;99567.88;2083797;28;45578;-60
2022/11/18 04:42:09;;;;;;;;;0.00;0.00;;;;;11.74;69.01;99572.34;2082468;28;46863;-62
2022/11/18 04:43:10;;;;;;;;;0.00;0.00;;;;;11.75;68.71;99575.84;2084054;28;45741;-61
2022/11/18 04:44:11;;;;;;;;;0.00;0.00;;;;;11.75;68.89;99568.75;2085230;28;46772;-61
2022/11/18 04:45:12;;;;;;;;;0.50;0.50;;;;;11.75;68.81;99574.06;2086800;28;47227;-61
2022/11/18 04:46:12;;;;;;;;;3.00;2.00;;;;;11.76;68.96;99575.78;2084097;28;46327;-62
2022/11/18 04:47:12;;;;;;;;;1.00;1.00;;;;;11.76;68.71;99580.22;2087050;28;46513;-62
2022/11/18 04:48:13;;;;;;;;;2.00;2.00;;;;;11.76;68.77;99580.22;2084535;28;45994;-59
2022/11/18 04:49:14;;;;;;;;;0.00;0.00;;;;;11.76;68.79;99585.56;2082333;28;46545;-61
2022/11/18 04:50:15;;;;;;;;;1.25;1.25;;;;;11.76;68.88;99580.22;2081037;28;46029;-59
2022/11/18 04:51:15;;;;;;;;;0.33;0.33;;;;;11.75;68.95;99579.38;2094896;28;46391;-61
2022/11/18 04:52:16;;;;;;;;;0.67;0.00;;;;;11.74;68.93;99584.75;2094458;28;45587;-62
2022/11/18 04:53:16;;;;;;;;;1.00;1.00;;;;;11.74;68.94;99579.44;2085848;28;46025;-61
2022/11/18 04:54:17;;;;;;;;;0.33;0.33;;;;;11.73;68.84;99586.56;2086050;28;46192;-60
2022/11/18 04:55:19;;;;;;;;;1.00;0.25;;;;;11.72;69.04;99582.19;2087566;28;47312;-61
2022/11/18 04:56:19;;;;;;;;;1.25;1.00;;;;;11.72;69.12;99582.19;2082847;28;47018;-60
2022/11/18 04:57:20;;;;;;;;;1.00;1.00;;;;;11.72;68.78;99579.50;2085906;28;46380;-60
2022/11/18 04:58:20;;;;;;;;;1.00;1.00;;;;;11.71;69.21;99582.25;2083177;28;48267;-61
2022/11/18 04:59:23;;;;;;;;;1.67;0.33;;;;;11.71;69.12;99587.56;2087286;28;46993;-60
2022/11/18 05:00:23;;;;;;;;;1.50;1.00;;;;;11.69;68.97;99581.47;2021430;28;46333;-60
2022/11/18 05:01:24;;;;;;;;;0.33;0.00;;;;;11.70;68.87;99584.03;2085033;28;46196;-61
2022/11/18 05:02:24;;;;;;;;;0.00;0.00;;;;;11.69;69.01;99574.34;2083753;28;46226;-60
2022/11/18 05:03:25;;;;;;;;;1.00;1.00;;;;;11.69;69.15;99582.31;2086566;28;46146;-61
2022/11/18 05:04:31;;;;;;;;;0.00;0.00;;;;;11.68;68.81;99585.00;2082747;28;46047;-62
2022/11/18 05:05:33;;;;;;;;;2.00;1.00;;;;;11.69;69.24;99595.59;2087357;28;46313;-63
2022/11/18 05:06:33;;;;;;;;;0.50;0.50;;;;;11.70;68.97;99597.34;2082950;28;46795;-62
2022/11/18 05:07:34;;;;;;;;;0.33;0.33;;;;;11.70;68.92;99591.16;2091106;28;46449;-63
2022/11/18 05:08:34;;;;;;;;;1.00;1.00;;;;;11.69;68.96;99592.09;2082166;28;46265;-61
2022/11/18 05:09:34;;;;;;;;;3.00;3.00;;;;;11.70;68.82;99588.50;2088074;28;46232;-62
2022/11/18 05:10:37;;;;;;;;;1.00;1.00;;;;;11.69;68.88;99590.28;2081100;28;46615;-62
2022/11/18 05:12:56;;;;;;;;;1.50;1.00;;;;;11.67;68.90;99593.91;2085189;28;46276;-62
2022/11/18 05:13:59;;;;;;;;;1.00;1.00;;;;;11.65;69.05;99588.69;2082597;28;46781;-61
2022/11/18 05:15:00;;;;;;;;;1.00;1.00;;;;;11.66;68.94;99593.06;2086484;28;46352;-61